WetterOnline ( https://www.wetteronline.de )

Wetter aktuell Putbus

Aktuelles Wetter: Putbus/Rügen (41m)

6-stündlich | Neueste Meldungen
Ortszeit Temperatur Wetter
Do, 29.02. 13:00 6.7° C wolkenlos
Do, 29.02. 7:00 1.1° C leicht bewölkt
Do, 29.02. 1:00 3.2° C bedeckt
Mi, 28.02. 19:00 3.8° C bedeckt
Mi, 28.02. 13:00 2.0° C bewölkt
Mi, 28.02. 7:00 0.7° C Nebel
Mi, 28.02. 1:00 0.7° C bedeckt
Di, 27.02. 19:00 1.4° C bedeckt
Ortszeit Temperatur Wetter
Do, 29.02. 18:30 5.2° C wolkig
Do, 29.02. 18:20 5.2° C wolkig
Do, 29.02. 18:10 5.2° C bedeckt
Do, 29.02. 18:00 5.5° C wolkig
Do, 29.02. 17:50 5.5° C wolkig
Do, 29.02. 17:40 5.6° C bedeckt
Do, 29.02. 17:30 6.0° C wolkig
Do, 29.02. 17:00 6.4° C wolkig
Do, 29.02. 16:30 7.0° C wolkig
Do, 29.02. 16:00 7.5° C leicht bewölkt
Do, 29.02. 15:30 8.3° C leicht bewölkt
Ortszeit Relative Feuchte Sichtweite
Do, 29.02. 13:00 67% 20 km
Do, 29.02. 7:00 90% 9 km
Do, 29.02. 1:00 84% 25 km
Mi, 28.02. 19:00 82% 16 km
Mi, 28.02. 13:00 85% 19 km
Mi, 28.02. 7:00 98% 0.8 km
Mi, 28.02. 1:00 98% 1.3 km
Di, 27.02. 19:00 99% 1.1 km
Ortszeit Relative Feuchte Sichtweite
Do, 29.02. 18:30 76% 25 km
Do, 29.02. 18:20 76% -
Do, 29.02. 18:10 76% -
Do, 29.02. 18:00 74% 24 km
Do, 29.02. 17:50 74% -
Do, 29.02. 17:40 73% -
Do, 29.02. 17:30 72% 26 km
Do, 29.02. 17:00 72% 28 km
Do, 29.02. 16:30 70% 28 km
Do, 29.02. 16:00 69% 29 km
Do, 29.02. 15:30 64% 30 km
Ortszeit Niederschlagsmenge Niederschlagsart
Do, 29.02. 13:00 0.0 l/m2 in 6 Std. -
Do, 29.02. 7:00 0.0 l/m2 in 12 Std. -
Do, 29.02. 1:00 0.0 l/m2 in 6 Std. -
Mi, 28.02. 19:00 0.1 l/m2 in 12 Std. -
Mi, 28.02. 13:00 0.1 l/m2 in 6 Std. Sprühregen
Mi, 28.02. 7:00 0.1 l/m2 in 12 Std. -
Mi, 28.02. 1:00 0.1 l/m2 in 6 Std. Sprühregen
Di, 27.02. 19:00 0.1 l/m2 in 12 Std. Sprühregen
Ortszeit Niederschlagsmenge Niederschlagsart
Do, 29.02. 18:30 0.0 l/m2 in 30 Min -
Do, 29.02. 18:20 keine Meldung -
Do, 29.02. 18:10 keine Meldung -
Do, 29.02. 18:00 0.0 l/m2 in 1 Std. -
Do, 29.02. 17:50 keine Meldung -
Do, 29.02. 17:40 keine Meldung -
Do, 29.02. 17:30 0.0 l/m2 in 30 Min -
Do, 29.02. 17:00 0.0 l/m2 in 1 Std. -
Do, 29.02. 16:30 0.0 l/m2 in 30 Min -
Do, 29.02. 16:00 0.0 l/m2 in 1 Std. -
Do, 29.02. 15:30 0.0 l/m2 in 30 Min -
Ortszeit Stärke Spitze Richtung
km/h Bft. km/h Grad Sektor
Do, 29.02. 13:00 18 3 40 170° S
Do, 29.02. 7:00 13 3 26 160° S
Do, 29.02. 1:00 13 3 24 180° S
Mi, 28.02. 19:00 9 2 19 200° S
Mi, 28.02. 13:00 11 2 28 230° SW
Mi, 28.02. 7:00 4 1 11 310° NW
Mi, 28.02. 1:00 2 1 17 320° NW
Di, 27.02. 19:00 9 2 19 50° NO
Ortszeit Stärke Spitze Richtung
km/h Bft. km/h Grad Sektor
Do, 29.02. 18:30 11 2 22 150° SO
Do, 29.02. 18:20 11 2 - 150° SO
Do, 29.02. 18:10 13 3 - 150° SO
Do, 29.02. 18:00 13 3 26 150° SO
Do, 29.02. 17:50 13 3 - 150° SO
Do, 29.02. 17:40 14 3 - 150° SO
Do, 29.02. 17:30 14 3 25 150° SO
Do, 29.02. 17:00 13 3 28 150° SO
Do, 29.02. 16:30 15 3 28 150° SO
Do, 29.02. 16:00 14 3 25 150° SO
Do, 29.02. 15:30 11 2 25 160° S
Ortszeit Untergrenze Bedeckung Gattung
total tief tief mittel hoch
Do, 29.02. 13:00 - 0/8 0/8 - - -
Do, 29.02. 7:00 9000 m 6/8 0/8 - - -
Do, 29.02. 1:00 1110 m 8/8 8/8 - - -
Mi, 28.02. 19:00 810 m 8/8 8/8 - - -
Mi, 28.02. 13:00 240 m 7/8 7/8 - - -
Mi, 28.02. 7:00 30 m 8/8 8/8 - - -
Mi, 28.02. 1:00 30 m 8/8 8/8 - - -
Di, 27.02. 19:00 30 m 8/8 8/8 - - -
Ortszeit Bedeckungsgrad in Achtel und Wolkenuntergrenze
Do, 29.02. 18:30 8(9000m)
Do, 29.02. 18:20 8(9000m)
Do, 29.02. 18:10 8
Do, 29.02. 18:00 8(10500m)
Do, 29.02. 17:50 8(10500m)
Do, 29.02. 17:40 8
Do, 29.02. 17:30 8(10500m)
Do, 29.02. 17:00 7(10500m) 8(10500m)
Do, 29.02. 16:30 8(10500m) 8(10500m)
Do, 29.02. 16:00 3(10500m) 6(10500m) 6(12000m)
Do, 29.02. 15:30 2(9000m) 6(12000m)
Ortszeit Luftdruck NN (hPa) Tendenz (hPa in 3 Std.)
Do, 29.02. 13:00 1016 - 1,5
Do, 29.02. 7:00 1018 - 1,4
Do, 29.02. 1:00 1021 - 0,6
Mi, 28.02. 19:00 1022 + 0,6
Mi, 28.02. 13:00 1021 + 0,4
Mi, 28.02. 7:00 1020 + 0,5
Mi, 28.02. 1:00 1020 - 0,1
Di, 27.02. 19:00 1019 + 0,7
Ortszeit Luftdruck NN (hPa) Tendenz (hPa in 3 Std.)
Do, 29.02. 18:30 1013 - 1,0
Do, 29.02. 18:20 1013 keine Meldung
Do, 29.02. 18:10 1013 keine Meldung
Do, 29.02. 18:00 1013 - 1,3
Do, 29.02. 17:50 1013 keine Meldung
Do, 29.02. 17:40 1013 keine Meldung
Do, 29.02. 17:30 1013 - 1,7
Do, 29.02. 17:00 1013 - 1,8
Do, 29.02. 16:30 1013 - 2,2
Do, 29.02. 16:00 1013 - 2,3
Do, 29.02. 15:30 1014 - 2,1
Ortszeit Schneehöhe (cm)
Do, 29.02. 13:00 0
Do, 29.02. 7:00 0
Do, 29.02. 1:00 0
Mi, 28.02. 19:00 0
Mi, 28.02. 13:00 0
Mi, 28.02. 7:00 0
Mi, 28.02. 1:00 0
Di, 27.02. 19:00 0
Ortszeit Schneehöhe (cm)
Do, 29.02. 18:30 0
Do, 29.02. 18:20 0
Do, 29.02. 18:10 -
Do, 29.02. 18:00 0
Do, 29.02. 17:50 0
Do, 29.02. 17:40 -
Do, 29.02. 17:30 0
Do, 29.02. 17:00 0
Do, 29.02. 16:30 0
Do, 29.02. 16:00 0
Do, 29.02. 15:30 0
Link zu dieser Seite / Seite empfehlen

Das Wetter in ...